Insula Oya 2 — FUKI — position and weather

sailwx.info

Track history (hours):
 
Tides and Currents Weather Stations Pressure Air Temp Water Temp Dewpoint Dewpoint Depression Visibility Wind Speed Wind Dir Waves Ship Positions

Insula Oya 2

Last reported at 2017-Jan-21 10:30 UTC. Time now 2017-Jan-22 01:36 UTC.
Position N 46°44' W 002°21'.

Length 50 m; draft 2.4 m.

Type: Passenger vessel. MMSI: 227004900.

Date/timePositionNaut miles runAvg speedWind from/ knotsBaromVisibWave heightAir tempDewpointWater temp
2017-Jan-21 10:30N 46°44' W 002°21'1 0.6
2017-Jan-21 09:34N 46°44' W 002°20'1212.4
2017-Jan-21 08:33N 46°54' W 002°09'0 0.3
2017-Jan-21 07:31N 46°54' W 002°08'0 0.0
2017-Jan-21 06:31N 46°54' W 002°08'0 0.0
2017-Jan-21 05:31N 46°54' W 002°08'0 0.0
2017-Jan-21 04:28N 46°54' W 002°08'0 0.0
2017-Jan-21 03:28N 46°54' W 002°08'0 0.0
2017-Jan-21 02:31N 46°54' W 002°08'0 0.0
2017-Jan-21 01:31N 46°54' W 002°08'0 0.0
2017-Jan-21 00:31N 46°54' W 002°08'0 0.0
2017-Jan-20 23:31N 46°54' W 002°08'0 0.0
2017-Jan-20 22:31N 46°54' W 002°08'0 0.0
2017-Jan-20 21:28N 46°54' W 002°08'0 0.0
2017-Jan-20 20:31N 46°54' W 002°08'0 0.0
2017-Jan-20 19:28N 46°54' W 002°08'0 0.0
2017-Jan-20 18:31N 46°54' W 002°08'0 0.0
2017-Jan-20 17:25N 46°54' W 002°08'0 0.0
2017-Jan-20 16:31N 46°54' W 002°08'2 0.4
2017-Jan-20 11:28N 46°53' W 002°11'4 0.9
2017-Jan-20 07:33N 46°50' W 002°14'5 4.7
2017-Jan-20 06:26N 46°54' W 002°08'0 0.0
2017-Jan-20 03:33N 46°54' W 002°08'0 0.0
2017-Jan-20 02:21N 46°54' W 002°08'0 0.0
2017-Jan-20 01:15N 46°54' W 002°08'0 0.0
2017-Jan-19 23:30N 46°54' W 002°08'0 0.0
2017-Jan-19 22:30N 46°54' W 002°08'0 0.0
2017-Jan-19 21:27N 46°54' W 002°08'0 0.0
2017-Jan-19 19:33N 46°54' W 002°08'0 0.0
2017-Jan-19 18:33N 46°54' W 002°08'0 0.0
2017-Jan-19 17:30N 46°54' W 002°08'0 0.0
2017-Jan-19 16:33N 46°54' W 002°08'0 0.0
2017-Jan-19 15:15N 46°54' W 002°08'0 0.0
2017-Jan-19 14:24N 46°54' W 002°08'0 0.0
2017-Jan-19 13:24N 46°54' W 002°08'0 0.0
2017-Jan-19 12:30N 46°54' W 002°08'0 0.0
2017-Jan-19 11:33N 46°54' W 002°08'1 1.0
2017-Jan-19 10:33N 46°54' W 002°10'3 0.7
2017-Jan-19 06:23N 46°52' W 002°13'4 4.4
2017-Jan-19 05:33N 46°54' W 002°08'0 0.0
2017-Jan-19 04:32N 46°54' W 002°08'0 0.0
2017-Jan-19 03:32N 46°54' W 002°08'0 0.0
2017-Jan-19 02:32N 46°54' W 002°08'0 0.0
2017-Jan-19 01:32N 46°54' W 002°08'0 0.0
2017-Jan-19 00:32N 46°54' W 002°08'0 0.0
2017-Jan-18 23:23N 46°54' W 002°08'0 0.0
2017-Jan-18 22:32N 46°54' W 002°08'0 0.0
2017-Jan-18 21:32N 46°54' W 002°08'0 0.0
2017-Jan-18 20:32N 46°54' W 002°08'0 0.0
2017-Jan-18 19:32N 46°54' W 002°08'0 0.0
2017-Jan-18 18:29N 46°54' W 002°08'3 0.2
2017-Jan-18 06:33N 46°53' W 002°12'3 2.8
2017-Jan-18 05:33N 46°54' W 002°08'0 0.0
2017-Jan-18 03:26N 46°54' W 002°08'0 0.0
2017-Jan-18 02:32N 46°54' W 002°08'0 0.0
2017-Jan-18 01:20N 46°54' W 002°08'0 0.0
2017-Jan-18 00:32N 46°54' W 002°08'0 0.0
2017-Jan-17 23:26N 46°54' W 002°08'0 0.0
2017-Jan-17 22:23N 46°54' W 002°08'0 0.0
2017-Jan-17 21:26N 46°54' W 002°08'0 0.0
2017-Jan-17 20:29N 46°54' W 002°08'0 0.0
2017-Jan-17 19:32N 46°54' W 002°08'0 0.0
2017-Jan-17 18:32N 46°54' W 002°08'12 1.0
2017-Jan-17 07:14N 46°45' W 002°20'1013.9
2017-Jan-17 06:32N 46°53' W 002°12'3 2.7
2017-Jan-17 05:33N 46°54' W 002°08'0 0.0
2017-Jan-17 04:33N 46°54' W 002°08'0 0.0
2017-Jan-17 01:12N 46°54' W 002°08'0 0.0
2017-Jan-16 22:24N 46°54' W 002°08'0 0.0
2017-Jan-16 21:24N 46°54' W 002°08'0 0.0
2017-Jan-16 20:24N 46°54' W 002°08'0 0.0
2017-Jan-16 18:33N 46°54' W 002°08'0 0.0
2017-Jan-16 17:33N 46°54' W 002°08'3 3.2
2017-Jan-16 16:33N 46°52' W 002°12'  
2017-Jan-12 20:14N 46°54' W 002°08'0 0.0
2017-Jan-12 19:31N 46°54' W 002°08'0 0.0
2017-Jan-12 18:33N 46°54' W 002°08'0 0.0
2017-Jan-12 17:34N 46°54' W 002°08'0 0.0
2017-Jan-12 16:34N 46°54' W 002°08'0 0.0
2017-Jan-12 15:33N 46°54' W 002°08'13 1.3
2017-Jan-12 05:23N 46°44' W 002°21'1012.4
2017-Jan-12 04:33N 46°52' W 002°12'3 0.2
2017-Jan-11 15:11N 46°54' W 002°08'610.3
2017-Jan-11 14:33N 46°49' W 002°15'  
Track history (hours):
 
Tides and Currents Weather Stations Pressure Air Temp Water Temp Dewpoint Dewpoint Depression Visibility Wind Speed Wind Dir Waves Ship Positions

Insula Oya 2

Last reported at 2017-Jan-21 10:30 UTC. Time now 2017-Jan-22 01:36 UTC.
Position N 46°44' W 002°21'.

Length 50 m; draft 2.4 m.

Type: Passenger vessel. MMSI: 227004900.

Date/timePositionNaut miles runAvg speedWind from/ knotsBaromVisibWave heightAir tempDewpointWater temp
2017-Jan-21 10:30N 46°44' W 002°21'1 0.6
2017-Jan-21 09:34N 46°44' W 002°20'1212.4
2017-Jan-21 08:33N 46°54' W 002°09'0 0.3
2017-Jan-21 07:31N 46°54' W 002°08'0 0.0
2017-Jan-21 06:31N 46°54' W 002°08'0 0.0
2017-Jan-21 05:31N 46°54' W 002°08'0 0.0
2017-Jan-21 04:28N 46°54' W 002°08'0 0.0
2017-Jan-21 03:28N 46°54' W 002°08'0 0.0
2017-Jan-21 02:31N 46°54' W 002°08'0 0.0
2017-Jan-21 01:31N 46°54' W 002°08'0 0.0
2017-Jan-21 00:31N 46°54' W 002°08'0 0.0
2017-Jan-20 23:31N 46°54' W 002°08'0 0.0
2017-Jan-20 22:31N 46°54' W 002°08'0 0.0
2017-Jan-20 21:28N 46°54' W 002°08'0 0.0
2017-Jan-20 20:31N 46°54' W 002°08'0 0.0
2017-Jan-20 19:28N 46°54' W 002°08'0 0.0
2017-Jan-20 18:31N 46°54' W 002°08'0 0.0
2017-Jan-20 17:25N 46°54' W 002°08'0 0.0
2017-Jan-20 16:31N 46°54' W 002°08'2 0.4
2017-Jan-20 11:28N 46°53' W 002°11'4 0.9
2017-Jan-20 07:33N 46°50' W 002°14'5 4.7
2017-Jan-20 06:26N 46°54' W 002°08'0 0.0
2017-Jan-20 03:33N 46°54' W 002°08'0 0.0
2017-Jan-20 02:21N 46°54' W 002°08'0 0.0
2017-Jan-20 01:15N 46°54' W 002°08'0 0.0
2017-Jan-19 23:30N 46°54' W 002°08'0 0.0
2017-Jan-19 22:30N 46°54' W 002°08'0 0.0
2017-Jan-19 21:27N 46°54' W 002°08'0 0.0
2017-Jan-19 19:33N 46°54' W 002°08'0 0.0
2017-Jan-19 18:33N 46°54' W 002°08'0 0.0
2017-Jan-19 17:30N 46°54' W 002°08'0 0.0
2017-Jan-19 16:33N 46°54' W 002°08'0 0.0
2017-Jan-19 15:15N 46°54' W 002°08'0 0.0
2017-Jan-19 14:24N 46°54' W 002°08'0 0.0
2017-Jan-19 13:24N 46°54' W 002°08'0 0.0
2017-Jan-19 12:30N 46°54' W 002°08'0 0.0
2017-Jan-19 11:33N 46°54' W 002°08'1 1.0
2017-Jan-19 10:33N 46°54' W 002°10'3 0.7
2017-Jan-19 06:23N 46°52' W 002°13'4 4.4
2017-Jan-19 05:33N 46°54' W 002°08'0 0.0
2017-Jan-19 04:32N 46°54' W 002°08'0 0.0
2017-Jan-19 03:32N 46°54' W 002°08'0 0.0
2017-Jan-19 02:32N 46°54' W 002°08'0 0.0
2017-Jan-19 01:32N 46°54' W 002°08'0 0.0
2017-Jan-19 00:32N 46°54' W 002°08'0 0.0
2017-Jan-18 23:23N 46°54' W 002°08'0 0.0
2017-Jan-18 22:32N 46°54' W 002°08'0 0.0
2017-Jan-18 21:32N 46°54' W 002°08'0 0.0
2017-Jan-18 20:32N 46°54' W 002°08'0 0.0
2017-Jan-18 19:32N 46°54' W 002°08'0 0.0
2017-Jan-18 18:29N 46°54' W 002°08'3 0.2
2017-Jan-18 06:33N 46°53' W 002°12'3 2.8
2017-Jan-18 05:33N 46°54' W 002°08'0 0.0
2017-Jan-18 03:26N 46°54' W 002°08'0 0.0
2017-Jan-18 02:32N 46°54' W 002°08'0 0.0
2017-Jan-18 01:20N 46°54' W 002°08'0 0.0
2017-Jan-18 00:32N 46°54' W 002°08'0 0.0
2017-Jan-17 23:26N 46°54' W 002°08'0 0.0
2017-Jan-17 22:23N 46°54' W 002°08'0 0.0
2017-Jan-17 21:26N 46°54' W 002°08'0 0.0
2017-Jan-17 20:29N 46°54' W 002°08'0 0.0
2017-Jan-17 19:32N 46°54' W 002°08'0 0.0
2017-Jan-17 18:32N 46°54' W 002°08'12 1.0
2017-Jan-17 07:14N 46°45' W 002°20'1013.9
2017-Jan-17 06:32N 46°53' W 002°12'3 2.7
2017-Jan-17 05:33N 46°54' W 002°08'0 0.0
2017-Jan-17 04:33N 46°54' W 002°08'0 0.0
2017-Jan-17 01:12N 46°54' W 002°08'0 0.0
2017-Jan-16 22:24N 46°54' W 002°08'0 0.0
2017-Jan-16 21:24N 46°54' W 002°08'0 0.0
2017-Jan-16 20:24N 46°54' W 002°08'0 0.0
2017-Jan-16 18:33N 46°54' W 002°08'0 0.0
2017-Jan-16 17:33N 46°54' W 002°08'3 3.2
2017-Jan-16 16:33N 46°52' W 002°12'  
2017-Jan-12 20:14N 46°54' W 002°08'0 0.0
2017-Jan-12 19:31N 46°54' W 002°08'0 0.0
2017-Jan-12 18:33N 46°54' W 002°08'0 0.0
2017-Jan-12 17:34N 46°54' W 002°08'0 0.0
2017-Jan-12 16:34N 46°54' W 002°08'0 0.0
2017-Jan-12 15:33N 46°54' W 002°08'13 1.3
2017-Jan-12 05:23N 46°44' W 002°21'1012.4
2017-Jan-12 04:33N 46°52' W 002°12'3 0.2
2017-Jan-11 15:11N 46°54' W 002°08'610.3
2017-Jan-11 14:33N 46°49' W 002°15'  

Dump ship's entire track history